Time;durP1;ratioP1;P1;durP2;ratioP2;P2;SDS_P1;SDS_P2;PMS_P1;PMS_P2;Temp;Humidity;BMP_temperature;BMP_pressure;BME280_temperature;BME280_humidity;BME280_pressure;Samples;Min_cycle;Max_cycle;Signal;HPM_P1;HPM_P2
2021/01/17 00:00:47;;;;;;;25.27;20.48;;;-5.20;1.40;;;-4.89;100.00;95449.75;643640;217;31624;-71
2021/01/17 00:03:16;;;;;;;23.90;18.07;;;-5.20;1.40;;;-4.89;100.00;95447.65;645547;221;23888;-71
2021/01/17 00:05:45;;;;;;;25.25;20.08;;;-5.20;1.40;;;-4.80;100.00;95442.46;637903;221;31956;-72
2021/01/17 00:08:15;;;;;;;26.60;20.45;;;-5.20;1.40;;;-4.82;100.00;95437.02;666138;210;31566;-71
2021/01/17 00:10:44;;;;;;;24.20;16.63;;;-5.30;1.40;;;-4.96;100.00;95433.13;671062;211;23455;-71
2021/01/17 00:13:13;;;;;;;24.65;19.00;;;-5.20;1.40;;;-4.99;100.00;95430.30;669532;211;31447;-71
2021/01/17 00:15:42;;;;;;;24.50;18.17;;;-5.30;1.40;;;-5.04;100.00;95428.29;666324;211;25573;-71
2021/01/17 00:18:11;;;;;;;27.52;20.58;;;-5.30;1.40;;;-4.90;100.00;95422.82;665095;211;31519;-71
2021/01/17 00:20:40;;;;;;;22.40;17.50;;;-5.30;1.40;;;-4.90;100.00;95411.56;670313;211;23444;-71
2021/01/17 00:23:09;;;;;;;26.12;19.25;;;-5.30;1.40;;;-4.91;100.00;95409.03;652217;215;31595;-71
2021/01/17 00:25:39;;;;;;;23.95;18.10;;;-5.20;1.40;;;-4.86;100.00;95403.07;662716;211;31406;-71
2021/01/17 00:28:08;;;;;;;18.60;16.47;;;-5.20;1.40;;;-4.89;100.00;95402.04;653428;216;25615;-71
2021/01/17 00:30:37;;;;;;;24.17;17.55;;;-5.20;1.40;;;-4.90;100.00;95395.06;647931;216;31787;-71
2021/01/17 00:33:06;;;;;;;22.45;17.58;;;-5.20;1.40;;;-4.92;100.00;95391.97;642834;219;31673;-71
2021/01/17 00:35:35;;;;;;;21.33;18.17;;;-5.30;1.40;;;-4.93;100.00;95387.56;661436;211;31748;-71
2021/01/17 00:38:07;;;;;;;21.63;15.40;;;-5.30;1.40;;;-4.86;100.00;95390.06;670506;211;23422;-70
2021/01/17 00:40:36;;;;;;;23.87;17.70;;;-5.40;1.40;;;-4.93;100.00;95388.39;655251;211;31449;-71
2021/01/17 00:43:05;;;;;;;24.02;17.35;;;-5.30;1.40;;;-4.79;100.00;95388.72;665717;211;31482;-70
2021/01/17 00:45:34;;;;;;;24.10;15.77;;;-5.30;1.40;;;-4.83;100.00;95381.77;667239;211;24442;-71
2021/01/17 00:48:04;;;;;;;25.20;18.67;;;-5.30;1.40;;;-4.87;100.00;95382.84;661478;211;31441;-71
2021/01/17 00:50:33;;;;;;;23.87;18.20;;;-5.30;1.40;;;-4.87;100.00;95379.38;662511;211;31476;-70
2021/01/17 00:53:02;;;;;;;23.10;17.37;;;-5.30;1.40;;;-4.84;100.00;95375.62;672340;211;23411;-71
2021/01/17 00:55:31;;;;;;;23.50;17.58;;;-5.40;1.40;;;-4.87;100.00;95375.58;663126;211;31982;-71
2021/01/17 00:58:00;;;;;;;18.23;15.67;;;-5.30;1.40;;;-4.93;100.00;95373.08;670469;211;23496;-71
2021/01/17 01:00:30;;;;;;;23.52;18.02;;;-5.30;1.40;;;-4.89;100.00;95371.11;664505;211;31444;-71
2021/01/17 01:02:59;;;;;;;22.58;18.33;;;-5.30;1.40;;;-4.89;100.00;95368.48;662054;211;42103;-71
2021/01/17 01:05:28;;;;;;;19.13;16.07;;;-5.30;1.40;;;-4.93;100.00;95363.34;666464;211;23422;-71
2021/01/17 01:07:59;;;;;;;22.25;18.52;;;-5.30;1.40;;;-4.98;100.00;95357.82;662788;211;31499;-71
2021/01/17 01:10:26;;;;;;;22.00;17.40;;;-5.30;1.40;;;-4.98;100.00;95355.60;662122;211;31442;-71
2021/01/17 01:12:55;;;;;;;21.47;16.77;;;-5.30;1.40;;;-4.93;100.00;95351.45;667039;211;26098;-71
2021/01/17 01:15:24;;;;;;;20.45;16.40;;;-5.30;1.40;;;-4.80;100.00;95348.34;664160;211;31405;-72
2021/01/17 01:17:53;;;;;;;18.70;14.60;;;-5.30;1.40;;;-4.94;100.00;95346.50;670387;210;23618;-71
2021/01/17 01:20:23;;;;;;;21.10;16.77;;;-5.30;1.40;;;-4.87;100.00;95338.94;668990;210;32036;-71
2021/01/17 01:22:52;;;;;;;20.63;15.10;;;-5.30;1.40;;;-4.80;100.00;95333.53;671517;211;23488;-71
2021/01/17 01:25:21;;;;;;;20.02;16.12;;;-5.30;1.40;;;-4.92;100.00;95331.08;668367;211;31432;-71
2021/01/17 01:27:50;;;;;;;24.47;17.10;;;-5.30;1.40;;;-4.89;100.00;95333.84;671450;211;23765;-72
2021/01/17 01:30:19;;;;;;;21.80;17.40;;;-5.30;1.40;;;-4.85;100.00;95326.18;667683;211;31451;-71
2021/01/17 01:32:50;;;;;;;20.47;14.80;;;-5.30;1.40;;;-4.99;100.00;95325.48;667707;211;23703;-72
2021/01/17 01:35:20;;;;;;;21.87;16.85;;;-5.40;1.40;;;-5.01;100.00;95320.45;639664;218;31015;-71
2021/01/17 01:37:49;;;;;;;18.37;14.57;;;-5.30;1.40;;;-4.95;100.00;95314.89;671407;211;23474;-71
2021/01/17 01:40:18;;;;;;;20.17;16.37;;;-5.40;1.40;;;-4.98;100.00;95314.18;668442;211;31425;-72
2021/01/17 01:42:47;;;;;;;22.85;17.45;;;-5.40;1.40;;;-4.93;100.00;95312.69;664744;211;31438;-71
2021/01/17 01:45:16;;;;;;;22.70;15.30;;;-5.40;1.40;;;-4.96;100.00;95308.61;668402;211;23431;-71
2021/01/17 01:47:45;;;;;;;21.23;15.05;;;-5.40;1.40;;;-4.96;100.00;95306.53;660043;211;31432;-72
2021/01/17 01:50:15;;;;;;;21.30;17.42;;;-5.30;1.40;;;-4.86;100.00;95296.88;650227;216;31702;-71
2021/01/17 01:52:44;;;;;;;18.60;15.83;;;-5.30;1.40;;;-4.85;100.00;95297.31;654801;216;23860;-71
2021/01/17 01:55:13;;;;;;;21.23;16.90;;;-5.20;1.40;;;-4.60;100.00;95298.44;662562;211;31486;-72
2021/01/17 01:57:42;;;;;;;20.30;16.53;;;-5.20;1.40;;;-4.54;100.00;95294.89;665623;211;42091;-72
2021/01/17 02:00:12;;;;;;;17.60;13.57;;;-5.10;1.40;;;-4.58;99.74;95289.84;668203;211;24475;-71
2021/01/17 02:02:45;;;;;;;18.53;15.33;;;-5.10;1.40;;;-4.44;99.94;95284.04;664963;211;31554;-71
2021/01/17 02:05:15;;;;;;;20.10;14.00;;;-5.00;1.40;;;-4.27;99.17;95281.05;667852;211;24727;-72
2021/01/17 02:10:22;;;;;;;20.58;17.73;;;-4.90;1.40;;;-4.22;97.72;95268.71;649399;216;31630;-70
2021/01/17 02:12:53;;;;;;;18.90;15.20;;;-4.90;1.40;;;-4.35;98.56;95262.84;642129;221;23493;-69
2021/01/17 02:15:25;;;;;;;22.27;16.73;;;-4.90;1.40;;;-4.40;99.04;95262.93;638461;221;32008;-70
2021/01/17 02:17:54;;;;;;;15.60;12.43;;;-4.90;1.40;;;-4.28;99.39;95259.66;640002;220;23537;-70
2021/01/17 02:20:24;;;;;;;19.08;16.02;;;-4.90;1.40;;;-4.07;98.96;95256.89;663945;211;31587;-71
2021/01/17 02:22:58;;;;;;;18.98;16.05;;;-4.80;1.40;;;-4.11;98.39;95249.91;668083;211;31489;-70
2021/01/17 02:25:26;;;;;;;17.57;13.47;;;-4.80;1.40;;;-4.32;98.83;95243.92;647010;219;28005;-71
2021/01/17 02:27:56;;;;;;;17.62;14.75;;;-4.80;1.40;;;-4.40;99.69;95238.29;658864;211;31617;-71
2021/01/17 02:30:25;;;;;;;16.00;13.40;;;-4.80;1.40;;;-4.43;100.00;95228.71;654408;216;23583;-70
2021/01/17 02:32:55;;;;;;;17.27;14.40;;;-4.80;1.40;;;-4.30;100.00;95229.91;664594;211;31448;-70
2021/01/17 02:35:25;;;;;;;13.20;10.87;;;-4.70;1.40;;;-4.34;100.00;95223.92;666082;211;24467;-70
2021/01/17 02:38:18;;;;;;;16.17;12.50;;;-4.70;1.40;;;-4.22;100.00;95223.47;663447;211;31461;-70
2021/01/17 02:41:09;;;;;;;15.25;13.02;;;-4.70;1.40;;;-4.17;100.00;95212.36;620097;226;32028;-72
2021/01/17 02:43:38;;;;;;;15.27;11.57;;;-4.60;1.40;;;-4.30;100.00;95208.32;637525;220;23513;-73
2021/01/17 02:46:07;;;;;;;16.05;13.02;;;-4.60;1.40;;;-4.10;100.00;95202.50;623997;225;31978;-71
2021/01/17 02:48:36;;;;;;;14.47;11.03;;;-4.60;1.40;;;-4.08;100.00;95197.09;626918;225;23539;-73
2021/01/17 02:51:05;;;;;;;16.98;13.57;;;-4.60;1.40;;;-4.01;100.00;95195.11;623755;225;31995;-73
2021/01/17 02:53:35;;;;;;;16.80;11.20;;;-4.50;1.40;;;-4.12;100.00;95189.31;628593;225;23552;-72
2021/01/17 02:56:04;;;;;;;15.07;12.60;;;-4.60;1.40;;;-4.03;100.00;95185.64;623664;225;32075;-72
2021/01/17 03:01:14;;;;;;;16.80;13.45;;;-4.50;1.40;;;-3.86;100.00;95188.88;648583;212;42741;-73
2021/01/17 03:03:43;;;;;;;16.08;14.38;;;-4.50;1.40;;;-3.86;100.00;95187.27;636230;220;32074;-73
2021/01/17 03:06:12;;;;;;;12.97;11.57;;;-4.50;1.40;;;-3.97;100.00;95176.19;641916;220;23914;-72
2021/01/17 03:08:41;;;;;;;15.80;13.10;;;-4.40;1.40;;;-3.75;100.00;95181.39;632911;221;31843;-72
2021/01/17 03:11:10;;;;;;;12.60;10.27;;;-4.40;1.40;;;-3.65;100.00;95177.30;642115;221;27798;-72
2021/01/17 03:13:39;;;;;;;14.75;12.37;;;-4.30;1.40;;;-3.85;100.00;95176.70;634768;220;31766;-73
2021/01/17 03:16:09;;;;;;;13.57;12.13;;;-4.30;1.40;;;-3.89;100.00;95170.66;643093;220;23481;-72
2021/01/17 03:18:38;;;;;;;16.37;12.63;;;-4.30;1.40;;;-3.89;100.00;95165.53;662003;211;32562;-72
2021/01/17 03:21:07;;;;;;;15.82;12.75;;;-4.40;1.40;;;-3.77;100.00;95167.60;646851;216;31704;-72
2021/01/17 03:23:36;;;;;;;13.73;11.80;;;-4.30;1.40;;;-3.88;100.00;95165.30;653646;216;23446;-72
2021/01/17 03:26:05;;;;;;;14.25;12.02;;;-4.40;1.40;;;-3.89;100.00;95168.71;663357;211;31461;-72
2021/01/17 03:28:35;;;;;;;12.00;9.90;;;-4.30;1.40;;;-3.73;100.00;95170.16;669041;211;23431;-72
2021/01/17 03:31:04;;;;;;;15.18;12.85;;;-4.30;1.40;;;-3.36;100.00;95168.16;664689;211;31451;-72
2021/01/17 03:33:33;;;;;;;16.00;11.57;;;-4.20;1.40;;;-3.48;100.00;95172.74;668954;211;23408;-73
2021/01/17 03:36:02;;;;;;;15.90;12.05;;;-4.20;1.40;;;-3.15;100.00;95180.62;664655;211;31453;-71
2021/01/17 03:38:31;;;;;;;12.30;11.10;;;-4.10;1.40;;;-3.38;100.00;95183.58;668605;211;23417;-72
2021/01/17 03:41:00;;;;;;;12.68;11.38;;;-4.10;1.40;;;-3.58;100.00;95178.80;664685;211;31830;-72
2021/01/17 03:46:04;;;;;;;16.92;12.57;;;-4.20;1.40;;;-3.63;100.00;95176.67;619894;226;32296;-72
2021/01/17 03:48:33;;;;;;;12.53;11.23;;;-4.20;1.40;;;-3.70;100.00;95174.36;639759;220;23535;-73
2021/01/17 03:51:02;;;;;;;14.85;12.77;;;-4.20;1.40;;;-3.58;100.00;95175.01;635400;220;31780;-73
2021/01/17 03:53:31;;;;;;;14.00;12.45;;;-4.20;1.40;;;-3.54;100.00;95179.45;636990;220;31806;-74
2021/01/17 03:56:00;;;;;;;13.40;11.70;;;-4.10;1.40;;;-3.65;100.00;95178.77;643331;221;23521;-73
2021/01/17 03:58:29;;;;;;;14.55;12.60;;;-4.10;1.40;;;-3.63;100.00;95176.75;637343;220;32081;-74
2021/01/17 04:00:58;;;;;;;12.67;10.27;;;-4.20;1.40;;;-3.46;100.00;95180.85;642538;221;23478;-72
2021/01/17 04:03:28;;;;;;;15.80;13.07;;;-4.10;1.40;;;-3.34;100.00;95178.50;639075;221;31992;-72
2021/01/17 04:05:57;;;;;;;15.38;13.40;;;-4.10;1.40;;;-3.30;100.00;95177.88;636121;221;31828;-72
2021/01/17 04:08:26;;;;;;;15.47;11.80;;;-4.00;1.40;;;-3.40;100.00;95176.56;639182;221;23500;-72
2021/01/17 04:10:55;;;;;;;15.93;13.15;;;-4.00;1.40;;;-3.67;100.00;95178.77;636276;221;43128;-73
2021/01/17 04:13:24;;;;;;;18.10;15.48;;;-4.10;1.40;;;-3.61;100.00;95176.39;634939;220;31945;-72
2021/01/17 04:15:53;;;;;;;15.40;13.20;;;-4.20;1.40;;;-3.83;100.00;95174.76;639995;221;23658;-72
2021/01/17 04:18:22;;;;;;;18.25;14.50;;;-4.20;1.40;;;-3.61;100.00;95173.16;638051;221;31818;-73
2021/01/17 04:20:53;;;;;;;15.50;12.97;;;-4.20;1.40;;;-3.55;100.00;95171.44;641031;221;23479;-72
2021/01/17 04:23:20;;;;;;;17.60;14.50;;;-4.10;1.40;;;-3.72;100.00;95165.05;636411;221;31833;-73
2021/01/17 04:25:50;;;;;;;19.67;12.50;;;-4.20;1.40;;;-3.74;100.00;95165.01;642399;221;23483;-72
2021/01/17 04:28:19;;;;;;;17.70;14.68;;;-4.20;1.40;;;-3.54;100.00;95161.39;635841;221;31996;-71
2021/01/17 04:30:48;;;;;;;18.50;12.90;;;-4.10;1.40;;;-3.57;100.00;95162.58;641039;221;23492;-72
2021/01/17 04:33:19;;;;;;;17.92;15.07;;;-4.10;1.40;;;-3.49;100.00;95162.88;633919;221;31963;-71
2021/01/17 04:38:24;;;;;;;18.23;15.43;;;-4.10;1.40;;;-3.45;100.00;95168.06;647025;216;31679;-71
2021/01/17 04:40:53;;;;;;;15.47;12.70;;;-4.00;1.40;;;-3.56;100.00;95167.39;641282;221;24513;-71
2021/01/17 04:43:30;;;;;;;17.30;14.05;;;-4.10;1.40;;;-3.52;100.00;95165.07;645748;216;31776;-71
2021/01/17 04:45:59;;;;;;;16.17;13.00;;;-4.10;1.40;;;-3.53;100.00;95172.30;645634;219;23516;-72
2021/01/17 04:48:28;;;;;;;17.43;12.10;;;-4.10;1.40;;;-3.52;100.00;95170.38;655386;215;24510;-71
2021/01/17 04:51:00;;;;;;;16.45;13.40;;;-4.10;1.40;;;-3.46;100.00;95171.49;652822;215;31637;-71
2021/01/17 04:53:30;;;;;;;15.97;12.87;;;-4.00;1.40;;;-3.49;100.00;95170.72;658994;215;26080;-72
2021/01/17 04:56:01;;;;;;;18.48;15.30;;;-4.00;1.40;;;-3.48;100.00;95162.91;650036;215;31613;-72
2021/01/17 04:58:31;;;;;;;14.07;10.93;;;-4.00;1.40;;;-3.47;100.00;95163.56;658537;215;23490;-71
2021/01/17 05:01:00;;;;;;;16.58;13.62;;;-4.00;1.40;;;-3.32;100.00;95166.05;648792;215;31617;-72
2021/01/17 05:03:53;;;;;;;18.67;12.60;;;-4.00;1.40;;;-3.46;100.00;95153.41;654497;215;24486;-71
2021/01/17 05:06:27;;;;;;;17.50;14.73;;;-4.00;1.40;;;-3.31;100.00;95155.79;639935;220;31857;-71
2021/01/17 05:09:01;;;;;;;16.03;11.73;;;-4.00;1.40;;;-3.36;100.00;95152.87;642975;220;23500;-72
2021/01/17 05:11:34;;;;;;;14.80;12.07;;;-3.90;1.40;;;-3.25;100.00;95151.84;658076;215;24522;-71
2021/01/17 05:14:10;;;;;;;15.00;13.00;;;-3.90;1.40;;;-3.13;100.00;95155.97;649090;216;31638;-71
2021/01/17 05:16:47;;;;;;;16.00;12.27;;;-3.90;1.40;;;-3.22;100.00;95156.30;658889;216;23482;-72
2021/01/17 05:19:16;;;;;;;15.30;12.07;;;-3.90;1.40;;;-3.27;100.00;95159.29;651793;215;31844;-72
2021/01/17 05:21:46;;;;;;;16.80;12.70;;;-3.90;1.40;;;-3.28;100.00;95159.01;652101;215;31680;-72
2021/01/17 05:24:15;;;;;;;14.63;10.63;;;-3.90;1.40;;;-3.46;100.00;95153.47;655478;216;23508;-72
2021/01/17 05:26:54;;;;;;;14.13;12.63;;;-3.90;1.40;;;-3.25;100.00;95156.91;651333;216;31568;-72
2021/01/17 05:29:24;;;;;;;13.55;12.10;;;-3.90;1.40;;;-3.25;100.00;95158.71;650150;215;31695;-72
2021/01/17 05:31:55;;;;;;;10.73;9.30;;;-3.90;1.40;;;-3.34;100.00;95157.32;655750;215;23465;-72
2021/01/17 05:35:55;;;;;;;13.32;10.30;;;-3.90;1.40;;;-3.25;100.00;95158.23;647563;216;31632;-69
2021/01/17 05:38:24;;;;;;;15.30;10.67;;;-3.90;1.40;;;-3.33;100.00;95153.78;639409;220;24557;-70
2021/01/17 05:40:53;;;;;;;13.10;10.10;;;-3.90;1.40;;;-3.26;100.00;95162.77;636972;221;31768;-69
2021/01/17 05:43:22;;;;;;;10.80;8.93;;;-3.90;1.40;;;-3.32;100.00;95159.48;637874;221;23496;-69
2021/01/17 05:45:51;;;;;;;13.25;10.90;;;-3.90;1.40;;;-3.28;100.00;95168.97;625002;225;31901;-70
2021/01/17 05:48:20;;;;;;;10.63;9.60;;;-3.90;1.40;;;-3.38;100.00;95159.72;642975;220;23511;-71
2021/01/17 05:50:50;;;;;;;12.48;10.30;;;-3.90;1.40;;;-3.14;100.00;95164.92;654702;215;42465;-70
2021/01/17 05:53:19;;;;;;;10.57;9.47;;;-3.80;1.40;;;-3.08;100.00;95168.67;656992;215;26148;-70
2021/01/17 05:55:48;;;;;;;11.43;10.20;;;-3.80;1.40;;;-2.92;100.00;95167.34;646948;215;33185;-70
2021/01/17 05:58:30;;;;;;;11.82;10.15;;;-3.80;1.40;;;-3.10;100.00;95167.59;650085;215;31992;-70
2021/01/17 06:01:17;;;;;;;11.10;9.17;;;-3.80;1.40;;;-3.13;100.00;95171.55;627628;225;23523;-70
2021/01/17 06:03:50;;;;;;;13.03;8.70;;;-3.80;1.40;;;-3.16;100.00;95168.27;659295;215;24449;-69
2021/01/17 06:06:26;;;;;;;11.95;9.77;;;-3.80;1.40;;;-3.06;100.00;95166.28;624483;225;32088;-70
2021/01/17 06:08:55;;;;;;;12.18;10.93;;;-3.80;1.40;;;-3.01;100.00;95173.94;651111;215;31711;-70
2021/01/17 06:11:24;;;;;;;11.57;10.37;;;-3.80;1.40;;;-3.09;100.00;95178.61;656492;215;23447;-70
2021/01/17 06:13:55;;;;;;;12.23;10.30;;;-3.80;1.40;;;-3.00;100.00;95178.52;652653;215;31595;-70
2021/01/17 06:16:32;;;;;;;13.20;9.40;;;-3.70;1.40;;;-3.03;100.00;95177.22;654507;216;23459;-71
2021/01/17 06:19:00;;;;;;;13.27;10.37;;;-3.70;1.40;;;-2.84;100.00;95179.11;648521;215;31722;-70
2021/01/17 06:21:29;;;;;;;11.68;10.48;;;-3.70;1.40;;;-2.95;100.00;95179.74;650652;216;31652;-70
2021/01/17 06:24:01;;;;;;;14.82;11.02;;;-3.70;1.40;;;-3.02;100.00;95189.38;650208;215;31778;-70
2021/01/17 06:26:31;;;;;;;12.63;9.33;;;-3.70;1.40;;;-3.04;100.00;95175.61;657281;216;23479;-70
2021/01/17 06:29:00;;;;;;;12.20;10.10;;;-3.70;1.40;;;-3.13;100.00;95178.17;636872;223;24543;-70
2021/01/17 06:31:29;;;;;;;13.07;10.20;;;-3.70;1.40;;;-3.15;100.00;95176.59;636302;221;42737;-70
2021/01/17 06:34:05;;;;;;;13.80;9.40;;;-3.70;1.40;;;-3.00;100.00;95179.20;644632;220;23484;-69
2021/01/17 06:36:35;;;;;;;12.83;9.43;;;-3.60;1.40;;;-3.09;100.00;95180.46;657759;216;24483;-69
2021/01/17 06:39:06;;;;;;;11.70;10.50;;;-3.60;1.40;;;-3.07;100.00;95183.76;649125;215;31645;-70
2021/01/17 06:41:36;;;;;;;10.83;8.50;;;-3.60;1.40;;;-3.07;100.00;95190.59;638218;221;23473;-70
2021/01/17 06:46:46;;;;;;;12.80;9.85;;;-3.60;1.40;;;-2.73;100.00;95184.87;631895;217;31756;-72
2021/01/17 06:49:16;;;;;;;11.27;8.83;;;-3.50;1.40;;;-2.63;100.00;95187.18;629694;225;23507;-72
2021/01/17 06:51:45;;;;;;;11.70;9.60;;;-3.50;1.40;;;-2.82;100.00;95183.88;623693;225;42952;-72
2021/01/17 06:54:14;;;;;;;14.05;11.20;;;-3.50;1.40;;;-2.79;100.00;95184.58;629512;224;31765;-72
2021/01/17 06:56:45;;;;;;;10.07;8.90;;;-3.50;1.40;;;-2.84;100.00;95185.52;633995;224;24582;-72
2021/01/17 06:59:14;;;;;;;9.93;6.87;;;-3.50;1.40;;;-2.88;100.00;95188.48;629222;225;24639;-72
2021/01/17 07:01:43;;;;;;;9.07;7.20;;;-3.50;1.40;;;-2.82;100.00;95181.31;633516;220;31833;-72
2021/01/17 07:04:18;;;;;;;9.43;7.50;;;-3.40;1.40;;;-2.92;100.00;95191.69;636042;220;31761;-73
2021/01/17 07:07:01;;;;;;;9.43;6.80;;;-3.40;1.40;;;-2.77;100.00;95186.95;638575;220;24593;-72
2021/01/17 07:12:19;;;;;;;7.37;6.57;;;-3.40;1.40;;;-2.82;100.00;95188.97;645014;212;31832;-69
2021/01/17 07:14:49;;;;;;;7.70;6.37;;;-3.30;1.40;;;-2.69;100.00;95188.56;640850;221;23542;-69
2021/01/17 07:17:18;;;;;;;7.80;5.47;;;-3.30;1.40;;;-2.64;100.00;95193.83;641634;221;24550;-69
2021/01/17 07:19:47;;;;;;;7.90;5.50;;;-3.20;1.40;;;-2.48;100.00;95193.44;636216;221;31705;-71
2021/01/17 07:22:17;;;;;;;6.43;5.30;;;-3.10;1.40;;;-2.54;100.00;95195.53;643073;220;23488;-70
2021/01/17 07:24:46;;;;;;;4.60;4.13;;;-3.00;1.40;;;-2.53;100.00;95197.89;641310;220;24542;-69
2021/01/17 07:27:15;;;;;;;6.37;4.95;;;-3.00;1.40;;;-2.39;100.00;95201.39;634493;221;32352;-69
2021/01/17 07:29:44;;;;;;;6.07;5.40;;;-2.90;1.40;;;-2.34;100.00;95203.47;633525;221;31749;-72
2021/01/17 07:34:53;;;;;;;5.05;4.50;;;-2.90;1.40;;;-2.31;100.00;95205.45;652037;212;42224;-72
2021/01/17 07:37:22;;;;;;;5.10;4.00;;;-2.80;1.40;;;-2.18;100.00;95203.50;641606;220;23498;-72
2021/01/17 07:39:51;;;;;;;4.90;4.03;;;-2.70;1.40;;;-2.18;100.00;95206.88;641571;220;24533;-72
2021/01/17 07:42:20;;;;;;;6.18;4.80;;;-2.80;1.40;;;-2.02;100.00;95212.05;648407;216;31678;-72
2021/01/17 07:44:49;;;;;;;4.63;4.20;;;-2.70;1.40;;;-1.90;100.00;95209.49;659183;211;23544;-72
2021/01/17 07:47:19;;;;;;;6.20;5.60;;;-2.60;1.40;;;-1.93;100.00;95211.66;657019;215;26967;-72
2021/01/17 07:49:48;;;;;;;4.93;4.10;;;-2.70;1.40;;;-1.94;100.00;95206.96;641741;219;24561;-71
2021/01/17 07:52:17;;;;;;;4.67;4.20;;;-2.60;1.40;;;-1.80;100.00;95212.18;628817;225;24936;-69
2021/01/17 07:54:46;;;;;;;7.83;5.40;;;-2.60;1.40;;;-1.83;100.00;95215.90;660421;215;24473;-70
2021/01/17 07:57:17;;;;;;;6.10;4.73;;;-2.50;1.40;;;-1.71;100.00;95216.84;642333;220;25119;-71
2021/01/17 07:59:44;;;;;;;5.85;5.03;;;-2.40;1.40;;;-1.54;100.00;95217.97;634739;220;32250;-70
2021/01/17 08:02:13;;;;;;;6.43;5.50;;;-2.40;1.40;;;-1.27;100.00;95217.40;649611;215;31569;-70
2021/01/17 08:04:49;;;;;;;6.30;5.60;;;-2.20;1.40;;;-1.06;100.00;95221.49;658394;215;23486;-70
2021/01/17 08:07:37;;;;;;;6.70;4.93;;;-2.00;1.40;;;-0.95;100.00;95219.78;633500;225;26868;-70
2021/01/17 08:10:07;;;;;;;5.60;5.10;;;-1.90;1.40;;;-0.89;100.00;95221.83;641633;220;24570;-70
2021/01/17 08:12:39;;;;;;;6.73;5.77;;;-1.80;1.40;;;-0.87;100.00;95223.14;640240;223;24528;-70
2021/01/17 08:15:14;;;;;;;6.53;5.85;;;-1.80;1.40;;;-0.81;100.00;95223.30;633333;221;31784;-70
2021/01/17 08:17:43;;;;;;;6.50;5.53;;;-1.60;1.40;;;-0.88;100.00;95224.08;656796;216;23523;-70
2021/01/17 08:20:20;;;;;;;6.75;5.78;;;-1.70;1.40;;;-0.82;100.00;95221.16;653725;216;31640;-70
2021/01/17 08:22:49;;;;;;;7.60;6.73;;;-1.60;1.40;;;-0.79;100.00;95221.96;641656;220;25846;-70
2021/01/17 08:25:19;;;;;;;9.57;6.10;;;-1.70;1.40;;;-1.09;100.00;95219.52;629513;224;24942;-70
2021/01/17 08:27:48;;;;;;;6.43;5.77;;;-1.70;1.40;;;-1.03;100.00;95222.34;654426;215;25390;-70
2021/01/17 08:30:18;;;;;;;6.72;5.72;;;-1.80;1.40;;;-1.07;100.00;95226.31;651567;215;31568;-70
2021/01/17 08:32:48;;;;;;;8.20;7.17;;;-1.80;1.40;;;-1.14;100.00;95228.80;633582;225;23518;-70
2021/01/17 08:35:32;;;;;;;8.83;7.40;;;-1.80;1.40;;;-1.18;100.00;95225.28;638081;221;31804;-70
2021/01/17 08:40:51;;;;;;;9.02;7.60;;;-1.70;1.40;;;-1.08;100.00;95226.89;647389;216;31569;-72
2021/01/17 08:43:20;;;;;;;7.60;6.50;;;-1.70;1.40;;;-0.73;100.00;95232.09;638309;220;23545;-71
2021/01/17 08:45:50;;;;;;;8.30;5.70;;;-1.50;1.40;;;-0.61;100.00;95230.59;625567;224;24745;-72
2021/01/17 08:48:20;;;;;;;9.83;7.90;;;-1.30;1.40;;;-0.48;100.00;95234.38;644164;220;24566;-71
2021/01/17 08:50:53;;;;;;;8.30;7.40;;;-1.30;1.40;;;-0.42;100.00;95236.53;657228;215;24523;-72
2021/01/17 08:53:25;;;;;;;9.33;8.23;;;-1.40;1.40;;;-0.34;100.00;95240.33;656334;215;24684;-72
2021/01/17 08:55:57;;;;;;;8.77;7.87;;;-1.30;1.40;;;-0.16;99.15;95244.22;658695;215;24482;-72
2021/01/17 08:58:41;;;;;;;8.93;6.63;;;-1.00;1.40;;;0.24;97.25;95248.70;654983;215;24505;-71
2021/01/17 09:01:19;;;;;;;10.35;7.72;;;-1.00;1.40;;;0.37;96.62;95248.33;645490;216;31566;-67
2021/01/17 09:03:50;;;;;;;10.43;9.33;;;-0.90;1.40;;;0.50;95.27;95251.59;640843;221;23525;-67
2021/01/17 09:06:28;;;;;;;8.30;6.67;;;-0.80;1.40;;;0.41;94.45;95257.23;643062;220;25078;-67
2021/01/17 09:08:59;;;;;;;11.18;9.60;;;-0.80;1.40;;;0.62;95.03;95260.84;639124;220;31742;-67
2021/01/17 09:11:37;;;;;;;10.10;8.40;;;-0.70;1.40;;;0.35;94.75;95266.77;639768;220;27074;-67
2021/01/17 09:14:13;;;;;;;8.43;7.60;;;-0.90;1.40;;;0.43;94.56;95264.73;640851;221;24541;-68
2021/01/17 09:16:59;;;;;;;9.23;7.53;;;-0.80;1.40;;;0.10;95.47;95271.44;641597;220;24504;-68
2021/01/17 09:19:31;;;;;;;9.33;8.27;;;-1.20;1.40;;;0.23;95.62;95274.92;639300;221;24485;-68
2021/01/17 09:22:00;;;;;;;11.00;8.60;;;-1.10;1.40;;;0.50;95.19;95274.31;642815;221;24502;-68
2021/01/17 09:24:29;;;;;;;8.53;7.43;;;-0.90;1.40;;;0.28;94.75;95277.02;632391;221;24567;-68
2021/01/17 09:26:58;;;;;;;8.90;7.40;;;-0.80;1.40;;;0.39;95.05;95281.57;639164;221;24522;-68
2021/01/17 09:32:07;;;;;;;12.15;9.70;;;-0.70;1.40;;;0.44;94.81;95287.72;645967;216;31597;-67
2021/01/17 09:34:40;;;;;;;13.13;10.57;;;-0.80;1.40;;;0.21;95.05;95287.84;649249;215;31649;-67
2021/01/17 09:37:10;;;;;;;10.90;9.50;;;-1.00;1.40;;;0.43;96.15;95290.00;655083;215;24521;-67
2021/01/17 09:39:42;;;;;;;11.70;9.20;;;-0.60;1.40;;;0.64;94.98;95293.69;670257;211;24528;-68
2021/01/17 09:42:11;;;;;;;12.77;8.83;;;-0.50;1.40;;;0.56;94.67;95297.52;670126;211;24432;-68
2021/01/17 09:44:40;;;;;;;10.67;9.13;;;-0.50;1.40;;;0.68;93.63;95297.53;661118;211;24476;-67
2021/01/17 09:47:18;;;;;;;11.00;9.90;;;-0.50;1.40;;;1.10;93.16;95306.87;633856;224;25608;-67
2021/01/17 09:49:47;;;;;;;12.10;10.07;;;-0.30;1.40;;;0.65;91.20;95310.28;640514;219;33425;-68
2021/01/17 09:52:16;;;;;;;14.37;12.73;;;-0.60;1.40;;;0.81;93.12;95309.08;654859;215;24503;-68
2021/01/17 09:54:49;;;;;;;12.00;10.70;;;-0.50;1.40;;;0.91;92.67;95306.82;650456;215;31963;-68
2021/01/17 09:57:19;;;;;;;14.45;11.75;;;-0.30;1.40;;;0.95;92.07;95311.28;649319;215;31607;-68
2021/01/17 09:59:49;;;;;;;11.90;9.73;;;-0.50;1.40;;;1.13;91.69;95310.19;643886;220;24613;-69
2021/01/17 10:02:20;;;;;;;13.70;11.43;;;-0.40;1.40;;;0.84;91.62;95315.64;654108;215;24468;-69
2021/01/17 10:04:50;;;;;;;12.77;10.20;;;-0.40;1.40;;;1.03;91.29;95312.39;654645;215;24504;-69
2021/01/17 10:07:19;;;;;;;13.77;9.30;;;-0.20;1.40;;;0.90;92.14;95312.36;656106;215;24803;-69
2021/01/17 10:09:48;;;;;;;10.27;9.17;;;-0.30;1.40;;;0.78;91.31;95319.45;633278;224;25736;-69
2021/01/17 10:12:20;;;;;;;16.03;10.10;;;-0.30;1.40;;;0.87;93.28;95320.97;642053;221;24583;-69
2021/01/17 10:14:49;;;;;;;15.00;10.57;;;-0.30;1.40;;;1.04;93.05;95323.66;641189;221;25074;-69
2021/01/17 10:17:18;;;;;;;15.13;11.65;;;-0.10;1.40;;;1.37;91.12;95320.75;650207;215;31865;-70
2021/01/17 10:19:47;;;;;;;11.53;10.20;;;-0.20;1.40;;;1.14;91.18;95323.66;643880;221;23784;-69
2021/01/17 10:22:16;;;;;;;12.70;10.63;;;-0.20;1.40;;;1.10;91.62;95325.66;643281;221;25664;-69
2021/01/17 10:27:19;;;;;;;14.60;11.65;;;-0.30;1.40;;;0.88;92.39;95328.98;648628;216;31618;-67
2021/01/17 10:29:49;;;;;;;14.50;10.77;;;-0.50;1.40;;;0.80;92.93;95329.20;640634;221;23477;-67
2021/01/17 10:32:18;;;;;;;12.73;10.33;;;-0.50;1.40;;;0.91;93.11;95327.00;640451;221;24578;-67
2021/01/17 10:34:47;;;;;;;15.73;10.80;;;-0.40;1.40;;;0.71;93.72;95328.77;641383;221;29818;-68
2021/01/17 10:39:51;;;;;;;14.90;12.25;;;-0.80;1.40;;;0.65;94.10;95327.36;649194;216;31648;-67
2021/01/17 10:42:31;;;;;;;14.17;11.97;;;-0.60;1.40;;;0.62;94.02;95329.88;641167;220;24586;-67
2021/01/17 10:45:02;;;;;;;14.13;11.53;;;-0.70;1.40;;;0.67;93.59;95325.25;641847;220;24547;-66
2021/01/17 10:47:59;;;;;;;14.17;9.63;;;-0.60;1.40;;;0.48;93.61;95328.41;641572;221;24518;-67
2021/01/17 10:50:43;;;;;;;14.57;10.95;;;-0.60;1.40;;;0.62;93.11;95330.57;620256;225;32000;-67
2021/01/17 10:53:16;;;;;;;14.53;10.70;;;-0.50;1.40;;;0.86;92.32;95329.92;613310;230;23615;-67
2021/01/17 10:55:46;;;;;;;13.70;12.30;;;-0.40;1.40;;;0.93;91.96;95333.02;616039;230;24607;-67
2021/01/17 10:58:19;;;;;;;11.40;9.13;;;-0.20;1.40;;;1.15;91.46;95326.34;616259;229;24673;-67